N658KP KTMK-KPFC
Flight info
| Callsign | N658KP |
|---|---|
| Flight time | 0h 9m |
| Altitude | 3000 |
| Route | 4524N12358W 4520N12401W |
| Aircraft | C310/L-SDFGR/S |
Departure
| Time | 2026-05-07 11:20 |
|---|---|
| Airport | Tillamook Airport (KTMK) |
Arrival
| Time | 2026-05-07 11:30 |
|---|---|
| Airport | Pacific City State Airport (KPFC) |
| Time | Latitude | Longitude | Altitude | Speed | Heading |
|---|---|---|---|---|---|
| 2026-05-07 11:09 | 45.41861 | -123.81804 | 26 ft | 0 kts | 159° |
| 2026-05-07 11:14 | 45.41859 | -123.81802 | 27 ft | 1 kts | 156° |
| 2026-05-07 11:14 | 45.41838 | -123.81773 | 26 ft | 6 kts | 130° |
| 2026-05-07 11:14 | 45.41793 | -123.81736 | 27 ft | 8 kts | 171° |
| 2026-05-07 11:15 | 45.41727 | -123.81715 | 27 ft | 10 kts | 166° |
| 2026-05-07 11:15 | 45.41649 | -123.81690 | 27 ft | 11 kts | 166° |
| 2026-05-07 11:15 | 45.41578 | -123.81665 | 27 ft | 0 kts | 153° |
| 2026-05-07 11:15 | 45.41576 | -123.81664 | 27 ft | 1 kts | 153° |
| 2026-05-07 11:16 | 45.41550 | -123.81649 | 27 ft | 5 kts | 160° |
| 2026-05-07 11:16 | 45.41515 | -123.81608 | 28 ft | 7 kts | 132° |
| 2026-05-07 11:16 | 45.41472 | -123.81540 | 29 ft | 10 kts | 133° |
| 2026-05-07 11:16 | 45.41416 | -123.81457 | 31 ft | 12 kts | 133° |
| 2026-05-07 11:17 | 45.41353 | -123.81358 | 33 ft | 13 kts | 134° |
| 2026-05-07 11:17 | 45.41275 | -123.81282 | 34 ft | 11 kts | 165° |
| 2026-05-07 11:17 | 45.41198 | -123.81230 | 35 ft | 13 kts | 147° |
| 2026-05-07 11:17 | 45.41172 | -123.81171 | 36 ft | 0 kts | 96° |
| 2026-05-07 11:20 | 45.41175 | -123.81132 | 37 ft | 8 kts | 66° |
| 2026-05-07 11:20 | 45.41279 | -123.81162 | 37 ft | 45 kts | 333° |
| 2026-05-07 11:20 | 45.41848 | -123.81525 | 147 ft | 113 kts | 330° |
| 2026-05-07 11:20 | 45.42619 | -123.82094 | 651 ft | 127 kts | 324° |
| 2026-05-07 11:21 | 45.43154 | -123.83075 | 1299 ft | 120 kts | 280° |
| 2026-05-07 11:21 | 45.43010 | -123.84328 | 1507 ft | 142 kts | 242° |
| 2026-05-07 11:21 | 45.42430 | -123.85604 | 1509 ft | 160 kts | 237° |
| 2026-05-07 11:21 | 45.41846 | -123.87022 | 1506 ft | 168 kts | 248° |
| 2026-05-07 11:22 | 45.41442 | -123.88645 | 1503 ft | 173 kts | 255° |
| 2026-05-07 11:22 | 45.41163 | -123.90340 | 1500 ft | 175 kts | 259° |
| 2026-05-07 11:22 | 45.40941 | -123.92091 | 1501 ft | 177 kts | 261° |
| 2026-05-07 11:22 | 45.40751 | -123.93816 | 1500 ft | 177 kts | 262° |
| 2026-05-07 11:23 | 45.40550 | -123.95562 | 1494 ft | 178 kts | 255° |
| 2026-05-07 11:23 | 45.39805 | -123.97014 | 1500 ft | 180 kts | 225° |
| 2026-05-07 11:23 | 45.38804 | -123.98068 | 1501 ft | 181 kts | 213° |
| 2026-05-07 11:23 | 45.37691 | -123.98927 | 1499 ft | 182 kts | 208° |
| 2026-05-07 11:24 | 45.36535 | -123.99699 | 1499 ft | 182 kts | 206° |
| 2026-05-07 11:24 | 45.35357 | -124.00435 | 1499 ft | 182 kts | 206° |
| 2026-05-07 11:24 | 45.34131 | -124.00929 | 1490 ft | 186 kts | 182° |
| 2026-05-07 11:24 | 45.32827 | -124.00760 | 1399 ft | 185 kts | 175° |
| 2026-05-07 11:25 | 45.31566 | -124.00416 | 1266 ft | 181 kts | 171° |
| 2026-05-07 11:25 | 45.30324 | -124.00012 | 1136 ft | 179 kts | 169° |
| 2026-05-07 11:25 | 45.29098 | -123.99588 | 1023 ft | 176 kts | 168° |
| 2026-05-07 11:25 | 45.27903 | -123.99160 | 1000 ft | 171 kts | 168° |
| 2026-05-07 11:26 | 45.26755 | -123.98748 | 996 ft | 165 kts | 168° |
| 2026-05-07 11:26 | 45.25640 | -123.98407 | 996 ft | 158 kts | 176° |
| 2026-05-07 11:26 | 45.24553 | -123.98274 | 1022 ft | 153 kts | 179° |
| 2026-05-07 11:26 | 45.23492 | -123.98193 | 1015 ft | 152 kts | 181° |
| 2026-05-07 11:27 | 45.22429 | -123.98116 | 1011 ft | 151 kts | 179° |
| 2026-05-07 11:27 | 45.21380 | -123.97942 | 994 ft | 152 kts | 174° |
| 2026-05-07 11:27 | 45.20356 | -123.97671 | 1085 ft | 146 kts | 172° |
| 2026-05-07 11:27 | 45.19390 | -123.97456 | 1136 ft | 129 kts | 176° |
| 2026-05-07 11:28 | 45.18486 | -123.97443 | 1099 ft | 127 kts | 182° |
| 2026-05-07 11:28 | 45.17606 | -123.97366 | 1114 ft | 122 kts | 180° |
| 2026-05-07 11:28 | 45.16765 | -123.97169 | 1090 ft | 123 kts | 155° |
| 2026-05-07 11:28 | 45.16422 | -123.96054 | 1002 ft | 129 kts | 74° |
| 2026-05-07 11:29 | 45.17002 | -123.95258 | 1005 ft | 110 kts | 359° |
| 2026-05-07 11:29 | 45.17760 | -123.95454 | 757 ft | 106 kts | 348° |
| 2026-05-07 11:29 | 45.18484 | -123.95647 | 458 ft | 103 kts | 340° |
| 2026-05-07 11:29 | 45.19156 | -123.95911 | 196 ft | 90 kts | 340° |
| 2026-05-07 11:30 | 45.19735 | -123.96114 | 16 ft | 76 kts | 340° |
| 2026-05-07 11:30 | 45.20090 | -123.96247 | 13 ft | 19 kts | 358° |
| 2026-05-07 11:30 | 45.20157 | -123.96276 | 13 ft | 6 kts | 322° |
| 2026-05-07 11:30 | 45.20157 | -123.96268 | 13 ft | 4 kts | 170° |
| 2026-05-07 11:31 | 45.20113 | -123.96253 | 13 ft | 8 kts | 165° |
| 2026-05-07 11:31 | 45.20078 | -123.96284 | 13 ft | 4 kts | 241° |
| 2026-05-07 11:31 | 45.20052 | -123.96281 | 13 ft | 5 kts | 171° |
| 2026-05-07 11:31 | 45.20028 | -123.96280 | 13 ft | 4 kts | 192° |
| 2026-05-07 11:32 | 45.20003 | -123.96268 | 13 ft | 0 kts | 62° |